Time;durP1;ratioP1;P1;durP2;ratioP2;P2;SDS_P1;SDS_P2;PMS_P1;PMS_P2;Temp;Humidity;BMP_temperature;BMP_pressure;BME280_temperature;BME280_humidity;BME280_pressure;Samples;Min_cycle;Max_cycle;Signal;HPM_P1;HPM_P2
2022/04/08 00:00:26;;;;;;;9.58;2.35;;;;;;;10.55;59.33;98811.81;1695785;84;21119;-53
2022/04/08 00:02:53;;;;;;;9.90;2.87;;;;;;;10.49;59.54;98814.60;1692931;83;21067;-53
2022/04/08 00:05:20;;;;;;;11.88;2.83;;;;;;;10.44;59.74;98807.69;1691459;83;21090;-52
2022/04/08 00:07:48;;;;;;;11.25;2.65;;;;;;;10.39;59.85;98812.11;1693673;83;21226;-53
2022/04/08 00:10:16;;;;;;;8.58;2.05;;;;;;;10.35;60.02;98809.45;1688521;83;21050;-53
2022/04/08 00:12:44;;;;;;;7.58;2.30;;;;;;;10.36;60.17;98812.92;1694038;83;21131;-53
2022/04/08 00:15:11;;;;;;;12.28;2.00;;;;;;;10.43;60.12;98810.48;1693243;84;21071;-53
2022/04/08 00:17:38;;;;;;;10.48;2.72;;;;;;;10.47;60.12;98815.23;1738048;81;21055;-53
2022/04/08 00:20:07;;;;;;;9.20;2.52;;;;;;;10.52;60.17;98817.39;1736921;81;21142;-53
2022/04/08 00:22:40;;;;;;;8.75;2.40;;;;;;;10.53;60.16;98809.84;1734513;81;21078;-52
2022/04/08 00:25:09;;;;;;;10.85;2.98;;;;;;;10.55;60.08;98809.99;1701999;82;21062;-52
2022/04/08 00:27:36;;;;;;;9.73;2.35;;;;;;;10.56;60.13;98808.20;1699948;82;21323;-51
2022/04/08 00:30:04;;;;;;;10.80;2.40;;;;;;;10.53;60.15;98801.45;1703825;83;21075;-52
2022/04/08 00:32:33;;;;;;;7.95;2.40;;;;;;;10.50;60.20;98797.01;1704797;83;22618;-52
2022/04/08 00:35:00;;;;;;;7.92;3.08;;;;;;;10.46;60.30;98795.20;1701650;82;21396;-52
2022/04/08 00:37:26;;;;;;;18.05;3.75;;;;;;;10.42;60.42;98795.17;1702401;83;21103;-52
2022/04/08 00:39:54;;;;;;;10.30;2.47;;;;;;;10.38;60.56;98787.28;1702420;82;21078;-52
2022/04/08 00:42:21;;;;;;;9.53;2.50;;;;;;;10.33;60.69;98786.94;1708403;83;21733;-52
2022/04/08 00:44:47;;;;;;;10.85;2.67;;;;;;;10.26;60.92;98785.91;1692394;83;21257;-51
2022/04/08 00:47:15;;;;;;;10.82;2.60;;;;;;;10.20;61.14;98779.47;1671516;85;21619;-52
2022/04/08 00:49:43;;;;;;;10.45;2.52;;;;;;;10.17;61.28;98781.09;1735300;81;22102;-52
2022/04/08 00:52:10;;;;;;;12.30;2.87;;;;;;;10.19;61.34;98781.28;1745632;81;21060;-54
2022/04/08 00:54:37;;;;;;;8.50;2.77;;;;;;;10.22;61.39;98778.34;1737108;81;21049;-52
2022/04/08 00:57:05;;;;;;;13.62;2.67;;;;;;;10.25;61.38;98774.55;1743994;81;21142;-52
2022/04/08 00:59:32;;;;;;;9.35;3.17;;;;;;;10.26;61.45;98770.95;1737494;81;21048;-52
2022/04/08 01:01:58;;;;;;;12.13;3.05;;;;;;;10.23;61.56;98770.77;1667387;85;21061;-53
2022/04/08 01:04:30;;;;;;;14.07;3.15;;;;;;;10.22;61.62;98770.45;1674651;84;21062;-52
2022/04/08 01:06:56;;;;;;;10.75;2.60;;;;;;;10.21;61.68;98761.41;1697823;83;21079;-52
2022/04/08 01:09:24;;;;;;;8.88;2.62;;;;;;;10.17;61.68;98762.23;1671198;84;21038;-52
2022/04/08 01:11:51;;;;;;;9.20;2.70;;;;;;;10.11;61.78;98757.60;1692142;81;21057;-52
2022/04/08 01:14:17;;;;;;;7.85;2.80;;;;;;;10.04;61.98;98754.79;1735778;81;21488;-52
2022/04/08 01:16:46;;;;;;;9.28;3.05;;;;;;;10.00;62.12;98746.06;1741841;81;22302;-53
2022/04/08 01:19:13;;;;;;;13.53;3.27;;;;;;;9.94;62.27;98748.84;1740450;80;21067;-53
2022/04/08 01:21:40;;;;;;;8.33;2.50;;;;;;;9.93;62.43;98743.75;1742573;81;21072;-53
2022/04/08 01:24:11;;;;;;;7.12;2.70;;;;;;;9.94;62.42;98735.70;1735339;81;21570;-53
2022/04/08 01:26:42;;;;;;;15.60;3.92;;;;;;;9.99;62.47;98733.92;1741201;81;21056;-53
2022/04/08 01:29:08;;;;;;;11.00;3.80;;;;;;;10.03;62.44;98728.67;1737367;81;21542;-53
2022/04/08 01:31:35;;;;;;;11.97;3.72;;;;;;;10.04;62.43;98723.76;1738980;81;22748;-53
2022/04/08 01:34:02;;;;;;;12.20;4.05;;;;;;;10.05;62.37;98713.55;1741020;81;21129;-53
2022/04/08 01:36:29;;;;;;;14.28;3.27;;;;;;;10.03;62.33;98707.64;1742793;81;21474;-53
2022/04/08 01:38:55;;;;;;;10.00;3.58;;;;;;;9.97;62.40;98710.44;1740783;81;20978;-54
2022/04/08 01:41:22;;;;;;;15.18;4.03;;;;;;;9.94;62.46;98707.31;1742061;81;21054;-54
2022/04/08 01:43:49;;;;;;;13.05;3.55;;;;;;;9.86;62.58;98707.59;1666878;84;21105;-52
2022/04/08 01:46:15;;;;;;;12.20;3.45;;;;;;;9.80;62.75;98699.05;1677047;85;21857;-52
2022/04/08 01:48:43;;;;;;;9.90;4.35;;;;;;;9.73;63.01;98698.02;1743564;82;21479;-52
2022/04/08 01:51:10;;;;;;;12.60;3.80;;;;;;;9.65;63.27;98711.97;1746451;82;21080;-52
2022/04/08 01:53:38;;;;;;;14.40;3.92;;;;;;;9.66;63.43;98700.95;1741693;81;21073;-52
2022/04/08 01:56:05;;;;;;;11.15;3.98;;;;;;;9.69;63.49;98699.83;1745819;82;21359;-53
2022/04/08 01:58:33;;;;;;;11.10;3.92;;;;;;;9.71;63.63;98695.23;1740549;81;21054;-53
2022/04/08 02:01:01;;;;;;;13.75;3.65;;;;;;;9.72;63.68;98696.39;1743177;82;21030;-53
2022/04/08 02:03:29;;;;;;;7.47;3.55;;;;;;;9.70;63.73;98687.86;1744807;81;21010;-52
2022/04/08 02:05:58;;;;;;;11.15;4.22;;;;;;;9.71;63.80;98688.67;1746171;82;21025;-53
2022/04/08 02:08:26;;;;;;;11.43;3.33;;;;;;;9.69;63.82;98686.70;1741402;81;21438;-53
2022/04/08 02:10:57;;;;;;;14.20;3.85;;;;;;;9.66;63.91;98685.20;1742954;82;20977;-53
2022/04/08 02:13:21;;;;;;;9.43;4.08;;;;;;;9.61;64.08;98686.17;1735216;81;21065;-53
2022/04/08 02:15:49;;;;;;;9.78;3.62;;;;;;;9.57;64.21;98683.54;1737708;82;20996;-53
2022/04/08 02:18:16;;;;;;;8.88;2.98;;;;;;;9.52;64.33;98684.50;1746188;81;21073;-53
2022/04/08 02:20:42;;;;;;;17.92;3.83;;;;;;;9.51;64.38;98685.47;1746903;82;21074;-53
2022/04/08 02:23:09;;;;;;;10.78;3.17;;;;;;;9.57;64.39;98684.35;1721297;81;21258;-53
2022/04/08 02:25:36;;;;;;;15.40;3.12;;;;;;;9.60;64.41;98683.20;1745411;80;21109;-53
2022/04/08 02:28:05;;;;;;;12.33;4.12;;;;;;;9.61;64.52;98680.42;1742815;81;21050;-53
2022/04/08 02:30:31;;;;;;;11.78;3.98;;;;;;;9.61;64.55;98686.17;1740550;81;21022;-53
2022/04/08 02:33:01;;;;;;;13.95;4.40;;;;;;;9.60;64.61;98693.70;1746161;81;21042;-53
2022/04/08 02:35:30;;;;;;;9.25;3.72;;;;;;;9.56;64.68;98690.57;1745672;81;21153;-53
2022/04/08 02:37:58;;;;;;;11.15;3.83;;;;;;;9.52;64.74;98683.19;1748932;81;21518;-53
2022/04/08 02:40:26;;;;;;;11.22;4.00;;;;;;;9.51;64.85;98692.85;1744657;81;21030;-53
2022/04/08 02:42:54;;;;;;;15.40;3.98;;;;;;;9.52;64.87;98692.38;1738927;82;21038;-52
2022/04/08 02:45:21;;;;;;;10.75;4.37;;;;;;;9.52;64.81;98689.26;1717969;81;21137;-53
2022/04/08 02:47:48;;;;;;;11.30;3.60;;;;;;;9.47;64.88;98688.41;1744514;80;21616;-53
2022/04/08 02:50:15;;;;;;;9.95;3.35;;;;;;;9.47;64.96;98688.91;1743913;80;21521;-53
2022/04/08 02:52:42;;;;;;;11.50;3.02;;;;;;;9.50;64.95;98685.97;1744127;80;21320;-53
2022/04/08 02:55:09;;;;;;;13.60;3.77;;;;;;;9.54;64.96;98678.59;1747731;80;21005;-53
2022/04/08 02:57:46;;;;;;;12.93;3.37;;;;;;;9.58;64.89;98679.91;1746968;80;21556;-53
2022/04/08 03:00:14;;;;;;;12.95;3.60;;;;;;;9.58;64.97;98688.64;1741636;80;21356;-53
2022/04/08 03:02:42;;;;;;;8.98;3.30;;;;;;;9.60;64.92;98680.10;1747345;80;20984;-53
2022/04/08 03:05:09;;;;;;;10.68;3.45;;;;;;;9.60;64.83;98682.73;1742387;80;22196;-53
2022/04/08 03:07:36;;;;;;;8.30;3.22;;;;;;;9.60;64.74;98684.51;1748045;81;21058;-53
2022/04/08 03:10:06;;;;;;;12.88;2.92;;;;;;;9.57;64.78;98682.23;1739915;80;22208;-53
2022/04/08 03:12:34;;;;;;;9.58;3.20;;;;;;;9.54;64.83;98674.66;1740546;80;21042;-53
2022/04/08 03:15:04;;;;;;;11.75;3.60;;;;;;;9.50;64.77;98676.78;1736798;80;21492;-53
2022/04/08 03:17:31;;;;;;;14.47;2.90;;;;;;;9.47;64.79;98674.47;1747547;81;22265;-53
2022/04/08 03:19:59;;;;;;;10.90;2.87;;;;;;;9.46;64.80;98672.34;1745935;80;21554;-52
2022/04/08 03:22:26;;;;;;;6.12;2.50;;;;;;;9.52;64.75;98668.75;1746956;80;21102;-53
2022/04/08 03:24:54;;;;;;;8.43;3.27;;;;;;;9.55;64.67;98665.31;1706245;82;21093;-53
2022/04/08 03:27:21;;;;;;;14.55;3.02;;;;;;;9.59;64.60;98663.19;1709085;83;21019;-53
2022/04/08 03:29:51;;;;;;;11.50;3.27;;;;;;;9.60;64.63;98664.81;1708019;82;21129;-53
2022/04/08 03:32:17;;;;;;;12.60;3.22;;;;;;;9.61;64.50;98667.28;1707613;83;21562;-53
2022/04/08 03:34:44;;;;;;;9.08;3.10;;;;;;;9.61;64.54;98668.60;1708414;83;21054;-53
2022/04/08 03:37:10;;;;;;;8.00;2.85;;;;;;;9.63;64.49;98661.88;1710679;83;21141;-52
2022/04/08 03:39:39;;;;;;;14.05;3.33;;;;;;;9.59;64.46;98656.12;1710037;82;21049;-53
2022/04/08 03:42:08;;;;;;;11.45;3.47;;;;;;;9.52;64.65;98658.25;1711269;83;21087;-53
2022/04/08 03:44:34;;;;;;;13.72;3.25;;;;;;;9.46;64.74;98650.03;1694420;83;21615;-53
2022/04/08 03:47:03;;;;;;;9.53;3.37;;;;;;;9.42;64.89;98651.80;1663786;85;21079;-53
2022/04/08 03:49:32;;;;;;;10.35;3.80;;;;;;;9.44;64.97;98651.15;1705864;82;21162;-53
2022/04/08 03:51:58;;;;;;;13.98;3.87;;;;;;;9.54;64.92;98661.53;1706357;83;21046;-53
2022/04/08 03:54:24;;;;;;;11.22;3.22;;;;;;;9.64;64.74;98661.72;1702536;82;21118;-53
2022/04/08 03:56:51;;;;;;;11.03;3.65;;;;;;;9.69;64.65;98671.76;1704024;82;21856;-53
2022/04/08 03:59:18;;;;;;;13.83;3.70;;;;;;;9.72;64.56;98676.70;1708638;82;21078;-53
2022/04/08 04:01:46;;;;;;;10.20;3.40;;;;;;;9.71;64.56;98673.73;1708181;82;21205;-53
2022/04/08 04:04:14;;;;;;;9.55;2.80;;;;;;;9.73;64.42;98681.45;1704896;82;21070;-53
2022/04/08 04:06:40;;;;;;;11.90;3.92;;;;;;;9.70;64.38;98683.08;1705899;83;21046;-53
2022/04/08 04:09:07;;;;;;;10.32;4.00;;;;;;;9.66;64.42;98670.26;1703828;82;21078;-53
2022/04/08 04:11:36;;;;;;;13.85;3.62;;;;;;;9.65;64.44;98667.81;1703066;83;21540;-53
2022/04/08 04:14:03;;;;;;;15.48;3.72;;;;;;;9.63;64.52;98667.13;1704745;82;21144;-53
2022/04/08 04:16:30;;;;;;;9.23;3.20;;;;;;;9.59;64.50;98677.63;1705360;82;21055;-53
2022/04/08 04:18:57;;;;;;;7.12;2.67;;;;;;;9.58;64.60;98676.82;1704540;82;21007;-53
2022/04/08 04:21:23;;;;;;;7.95;2.65;;;;;;;9.61;64.43;98678.29;1708663;82;21054;-53
2022/04/08 04:23:51;;;;;;;9.40;2.80;;;;;;;9.61;64.48;98684.86;1705093;82;21086;-54
2022/04/08 04:26:17;;;;;;;13.22;3.25;;;;;;;9.60;64.54;98680.57;1705172;82;21180;-53
2022/04/08 04:28:44;;;;;;;14.00;3.17;;;;;;;9.59;64.59;98688.14;1728453;82;21047;-53
2022/04/08 04:31:11;;;;;;;13.98;3.20;;;;;;;9.57;64.70;98676.97;1702385;82;21058;-53
2022/04/08 04:33:37;;;;;;;11.45;3.52;;;;;;;9.58;64.76;98679.45;1711513;82;21451;-53
2022/04/08 04:36:05;;;;;;;10.90;4.17;;;;;;;9.61;64.73;98671.72;1711083;82;21701;-53
2022/04/08 04:38:32;;;;;;;9.35;3.42;;;;;;;9.61;64.74;98663.84;1718211;82;21952;-53
2022/04/08 04:40:59;;;;;;;13.90;3.33;;;;;;;9.64;64.80;98664.84;1718589;82;21118;-53
2022/04/08 04:43:25;;;;;;;11.53;3.45;;;;;;;9.65;64.70;98666.50;1721349;82;21050;-53
2022/04/08 04:45:52;;;;;;;10.43;3.40;;;;;;;9.66;64.66;98661.06;1728981;81;21579;-53
2022/04/08 04:48:18;;;;;;;6.58;2.27;;;;;;;9.67;64.62;98657.97;1741092;82;21012;-53
2022/04/08 04:50:46;;;;;;;8.90;3.00;;;;;;;9.74;64.50;98647.15;1709011;82;21781;-53
2022/04/08 04:53:14;;;;;;;9.88;3.60;;;;;;;9.77;64.43;98647.33;1713153;83;21466;-53
2022/04/08 04:55:41;;;;;;;12.45;3.25;;;;;;;9.79;64.48;98642.23;1739603;81;21055;-53
2022/04/08 04:58:08;;;;;;;10.68;3.47;;;;;;;9.81;64.63;98642.89;1741833;82;21122;-53
2022/04/08 05:00:35;;;;;;;14.93;3.83;;;;;;;9.87;64.53;98657.20;1738324;80;21615;-53
2022/04/08 05:03:05;;;;;;;10.55;3.20;;;;;;;9.90;64.39;98660.83;1739088;82;21147;-53
2022/04/08 05:05:32;;;;;;;9.68;3.17;;;;;;;9.94;64.28;98671.84;1732379;81;21071;-53
2022/04/08 05:08:03;;;;;;;12.80;2.92;;;;;;;9.95;64.15;98661.64;1723980;80;21047;-55
2022/04/08 05:10:31;;;;;;;9.13;3.87;;;;;;;9.95;64.18;98657.70;1729512;81;21027;-52
2022/04/08 05:13:03;;;;;;;9.38;3.83;;;;;;;9.93;64.12;98651.29;1719852;82;21063;-54
2022/04/08 05:15:28;;;;;;;13.00;3.95;;;;;;;9.89;64.11;98655.23;1696798;82;22035;-52
2022/04/08 05:17:57;;;;;;;9.30;3.20;;;;;;;9.91;64.21;98638.00;1708180;82;21619;-52
2022/04/08 05:20:24;;;;;;;12.25;3.72;;;;;;;9.98;64.15;98637.67;1688621;82;21046;-53
2022/04/08 05:22:51;;;;;;;7.35;3.47;;;;;;;10.06;64.11;98639.50;1731805;80;21103;-53
2022/04/08 05:25:18;;;;;;;10.35;3.02;;;;;;;10.13;63.99;98642.62;1704356;82;21058;-52
2022/04/08 05:27:45;;;;;;;9.85;3.50;;;;;;;10.16;63.98;98640.17;1707840;83;21552;-53
2022/04/08 05:30:20;;;;;;;9.25;3.27;;;;;;;10.17;63.81;98636.07;1678815;83;21102;-52
2022/04/08 05:32:49;;;;;;;12.25;3.70;;;;;;;10.18;63.77;98629.81;1702875;83;21038;-52
2022/04/08 05:35:17;;;;;;;16.82;3.98;;;;;;;10.16;63.66;98634.41;1704732;82;20999;-53
2022/04/08 05:37:47;;;;;;;7.65;3.58;;;;;;;10.14;63.79;98636.39;1706187;83;21640;-53
2022/04/08 05:40:17;;;;;;;10.28;4.05;;;;;;;10.12;63.83;98637.05;1705144;82;21151;-52
2022/04/08 05:42:46;;;;;;;13.10;3.52;;;;;;;10.11;63.87;98639.84;1706922;83;21089;-53
2022/04/08 05:45:14;;;;;;;9.93;3.58;;;;;;;10.12;63.92;98633.11;1738114;81;21113;-53
2022/04/08 05:47:43;;;;;;;8.08;3.12;;;;;;;10.16;63.98;98623.09;1743894;82;21440;-53
2022/04/08 05:50:11;;;;;;;10.88;3.12;;;;;;;10.28;63.87;98618.33;1737793;81;21078;-54
2022/04/08 05:52:38;;;;;;;7.33;3.12;;;;;;;10.36;63.65;98617.05;1741372;80;21201;-54
2022/04/08 05:55:07;;;;;;;11.33;3.75;;;;;;;10.48;63.43;98614.41;1700345;82;21235;-53
2022/04/08 05:57:36;;;;;;;9.10;2.92;;;;;;;10.56;63.35;98596.49;1705464;82;21595;-54
2022/04/08 06:00:05;;;;;;;9.75;3.45;;;;;;;10.65;63.36;98585.45;1696780;83;21050;-54
2022/04/08 06:02:32;;;;;;;10.80;2.83;;;;;;;10.75;63.02;98591.36;1701413;82;22232;-54
2022/04/08 06:04:59;;;;;;;9.15;3.25;;;;;;;10.82;62.58;98599.40;1696954;82;21258;-54
2022/04/08 06:07:26;;;;;;;15.72;3.50;;;;;;;10.84;62.31;98600.85;1703620;83;21568;-54
2022/04/08 06:09:56;;;;;;;10.53;3.30;;;;;;;10.86;62.29;98594.95;1704237;83;21067;-54
2022/04/08 06:12:22;;;;;;;11.28;3.95;;;;;;;10.89;62.30;98602.52;1702863;83;21761;-54
2022/04/08 06:14:49;;;;;;;8.48;2.85;;;;;;;10.92;62.25;98600.02;1705405;82;21091;-54
2022/04/08 06:17:18;;;;;;;8.33;2.50;;;;;;;10.97;62.03;98589.30;1697915;82;21191;-54
2022/04/08 06:19:47;;;;;;;11.97;2.83;;;;;;;11.06;62.10;98599.81;1700618;83;21067;-54
2022/04/08 06:22:15;;;;;;;13.20;2.87;;;;;;;11.19;61.70;98605.36;1706537;83;21106;-54
2022/04/08 06:24:41;;;;;;;10.28;3.12;;;;;;;11.31;60.98;98601.86;1700284;82;21151;-52
2022/04/08 06:27:08;;;;;;;10.45;2.92;;;;;;;11.37;60.90;98605.13;1705480;83;21110;-54
2022/04/08 06:29:35;;;;;;;13.13;2.70;;;;;;;11.41;60.81;98605.09;1701488;83;21163;-52
2022/04/08 06:32:04;;;;;;;8.10;3.60;;;;;;;11.50;60.60;98605.91;1699194;82;21670;-52
2022/04/08 06:34:31;;;;;;;9.08;2.87;;;;;;;11.56;60.65;98598.61;1702032;83;21055;-53
2022/04/08 06:36:58;;;;;;;8.00;2.62;;;;;;;11.63;60.20;98591.67;1700198;83;21496;-53
2022/04/08 06:39:25;;;;;;;9.55;2.60;;;;;;;11.66;59.86;98597.89;1693220;82;21020;-54
2022/04/08 06:41:51;;;;;;;9.73;3.37;;;;;;;11.66;59.57;98591.30;1691310;82;21594;-53
2022/04/08 06:44:19;;;;;;;12.07;3.30;;;;;;;11.68;59.59;98594.61;1705623;83;21085;-52
2022/04/08 06:46:46;;;;;;;10.45;3.22;;;;;;;11.71;59.57;98596.06;1699960;83;21073;-53
2022/04/08 06:49:13;;;;;;;9.83;3.20;;;;;;;11.77;59.74;98591.90;1689110;83;21965;-54
2022/04/08 06:51:40;;;;;;;9.28;3.08;;;;;;;11.84;59.44;98589.72;1695319;83;21118;-53
2022/04/08 06:54:07;;;;;;;7.62;3.40;;;;;;;11.89;59.14;98587.89;1704790;83;21056;-53
2022/04/08 06:56:34;;;;;;;8.58;2.35;;;;;;;11.92;59.09;98591.52;1700128;82;21106;-53
2022/04/08 07:00:55;;;;;;;6.95;2.70;;;;;;;12.01;59.13;98593.09;1796599;79;22578;-53
2022/04/08 07:03:21;;;;;;;7.85;2.58;;;;;;;12.09;58.87;98596.18;1763817;80;22402;-53
2022/04/08 07:05:49;;;;;;;9.13;2.35;;;;;;;12.22;58.83;98606.95;1764397;80;21472;-53
2022/04/08 07:08:15;;;;;;;10.08;3.08;;;;;;;12.35;58.71;98605.02;1761835;80;21077;-55
2022/04/08 07:10:43;;;;;;;8.78;2.72;;;;;;;12.44;58.21;98613.20;1712854;81;20935;-53
2022/04/08 07:13:10;;;;;;;9.28;2.95;;;;;;;12.52;57.82;98616.75;1707504;83;21462;-53
2022/04/08 07:15:37;;;;;;;9.53;2.80;;;;;;;12.52;57.32;98621.52;1714614;83;21069;-54
2022/04/08 07:18:04;;;;;;;9.45;3.05;;;;;;;12.52;57.46;98613.61;1701038;83;21780;-54
2022/04/08 07:20:33;;;;;;;9.38;3.95;;;;;;;12.60;57.36;98606.13;1716507;82;20944;-54
2022/04/08 07:23:01;;;;;;;9.58;3.67;;;;;;;12.63;57.25;98602.62;1725594;83;21003;-54
2022/04/08 07:25:29;;;;;;;6.80;3.00;;;;;;;12.70;56.97;98603.23;1709937;82;21086;-54
2022/04/08 07:27:56;;;;;;;11.83;3.37;;;;;;;12.73;56.37;98608.16;1697240;82;21611;-53
2022/04/08 07:30:22;;;;;;;8.95;3.20;;;;;;;12.74;56.44;98612.42;1708940;83;21255;-54
2022/04/08 07:32:54;;;;;;;9.33;3.05;;;;;;;12.78;56.14;98611.08;1704535;83;21058;-53
2022/04/08 07:35:25;;;;;;;10.75;3.05;;;;;;;12.79;56.05;98606.94;1702723;82;21093;-53
2022/04/08 07:37:53;;;;;;;10.98;3.30;;;;;;;12.80;55.68;98611.20;1705260;83;21142;-54
2022/04/08 07:40:20;;;;;;;7.47;3.45;;;;;;;12.82;56.00;98604.42;1701914;83;21094;-54
2022/04/08 07:42:49;;;;;;;11.78;3.27;;;;;;;12.88;55.89;98608.98;1706209;83;21618;-54
2022/04/08 07:45:17;;;;;;;9.15;2.70;;;;;;;12.95;55.62;98619.64;1708977;82;21047;-54
2022/04/08 07:47:44;;;;;;;7.70;2.77;;;;;;;13.02;55.25;98617.91;1706642;83;21575;-54
2022/04/08 07:50:13;;;;;;;14.40;3.15;;;;;;;13.09;55.25;98615.36;1710585;83;21027;-54
2022/04/08 07:52:40;;;;;;;9.73;3.17;;;;;;;13.17;55.18;98622.69;1707829;83;21117;-53
2022/04/08 07:55:08;;;;;;;11.53;3.35;;;;;;;13.23;54.44;98637.48;1709232;83;21252;-52
2022/04/08 07:57:47;;;;;;;11.88;3.00;;;;;;;13.23;54.33;98628.23;1700375;83;21050;-52
2022/04/08 08:00:16;;;;;;;6.60;2.20;;;;;;;13.25;54.26;98616.50;1693550;83;21650;-53
2022/04/08 08:02:43;;;;;;;12.40;2.62;;;;;;;13.30;54.27;98615.96;1683913;85;21086;-52
2022/04/08 08:05:27;;;;;;;8.53;2.92;;;;;;;13.37;54.32;98624.81;1681801;84;21093;-55
2022/04/08 08:08:09;;;;;;;8.45;2.65;;;;;;;13.44;53.53;98622.25;1659030;84;21054;-53
2022/04/08 08:11:21;;;;;;;;;;;;;;;;;;;;;
2022/04/08 08:14:15;;;;;;;15.90;2.90;;;;;;;13.48;52.72;98620.87;1644758;82;21899;-54
2022/04/08 08:17:05;;;;;;;7.78;2.05;;;;;;;13.52;52.01;98612.39;1699636;82;21552;-54
2022/04/08 08:19:57;;;;;;;10.98;2.27;;;;;;;13.55;51.92;98606.74;1699552;82;21393;-52
2022/04/08 08:22:43;;;;;;;6.97;2.00;;;;;;;13.61;51.27;98607.00;1692000;83;21584;-53
2022/04/08 08:25:36;;;;;;;9.80;2.40;;;;;;;13.61;51.58;98603.04;1638432;83;21073;-54
2022/04/08 08:28:28;;;;;;;6.92;2.50;;;;;;;13.66;51.52;98603.30;1675421;84;21143;-55
2022/04/08 08:31:28;;;;;;;10.53;2.58;;;;;;;13.77;51.60;98601.50;1674064;83;28555;-54
2022/04/08 08:34:11;;;;;;;11.73;2.72;;;;;;;13.91;51.20;98609.05;1697968;82;21098;-54
2022/04/08 08:36:59;;;;;;;7.37;2.40;;;;;;;14.01;50.66;98597.66;1696185;80;21146;-54
2022/04/08 08:39:52;;;;;;;6.67;2.70;;;;;;;14.13;50.51;98599.30;1722256;80;21042;-53
2022/04/08 08:47:01;;;;;;;8.53;2.50;;;;;;;14.33;50.08;98588.89;1600231;87;21118;-53
2022/04/08 08:49:33;;;;;;;8.90;2.47;;;;;;;14.42;49.77;98584.27;1724882;80;21125;-54
2022/04/08 08:52:07;;;;;;;9.65;2.62;;;;;;;14.50;49.67;98583.63;1744264;80;21113;-54
2022/04/08 08:54:37;;;;;;;7.90;2.00;;;;;;;14.61;49.53;98573.58;1746413;82;21077;-53
2022/04/08 08:57:09;;;;;;;6.47;2.35;;;;;;;14.71;48.60;98563.45;1742107;80;21043;-52
2022/04/08 09:05:08;;;;;;;4.92;2.05;;;;;;;14.79;46.88;98554.05;1745015;81;21055;-54
2022/04/08 10:06:14;;;;;;;9.58;3.52;;;;;;;15.49;44.39;98556.58;1751150;80;21083;-53
2022/04/08 10:08:59;;;;;;;7.80;3.12;;;;;;;15.48;44.46;98536.38;1747933;80;21122;-54
2022/04/08 10:12:20;;;;;;;10.05;3.83;;;;;;;15.52;44.47;98520.39;1735397;80;21087;-53
2022/04/08 10:15:40;;;;;;;9.23;3.20;;;;;;;15.55;44.83;98516.52;1753253;80;21453;-52
2022/04/08 10:18:36;;;;;;;9.78;3.58;;;;;;;15.62;44.32;98546.52;1750412;80;21067;-52
2022/04/08 10:21:20;;;;;;;10.85;3.58;;;;;;;15.66;44.57;98545.09;1752230;80;21058;-53
2022/04/08 10:24:13;;;;;;;9.35;3.83;;;;;;;15.73;44.16;98555.71;1762592;80;21067;-52
2022/04/08 10:27:09;;;;;;;10.00;3.50;;;;;;;15.78;43.59;98569.22;1751003;80;21060;-52
2022/04/08 10:29:54;;;;;;;9.10;3.60;;;;;;;15.75;43.83;98549.23;1769364;80;21094;-52
2022/04/08 10:32:40;;;;;;;8.15;3.45;;;;;;;15.83;44.01;98548.73;1765493;80;21022;-54
2022/04/08 10:35:24;;;;;;;10.13;3.55;;;;;;;15.96;43.68;98554.05;1771037;80;21090;-52
2022/04/08 10:38:09;;;;;;;9.83;3.67;;;;;;;16.06;43.67;98542.53;1763516;80;21012;-52
2022/04/08 10:40:56;;;;;;;10.93;3.62;;;;;;;16.17;43.44;98551.70;1721797;82;21513;-53
2022/04/08 10:43:47;;;;;;;7.60;3.62;;;;;;;16.23;43.54;98554.08;1757419;80;21050;-53
2022/04/08 10:46:32;;;;;;;7.12;3.37;;;;;;;16.29;43.53;98534.66;1745980;80;21745;-52
2022/04/08 10:49:17;;;;;;;7.22;3.62;;;;;;;16.35;43.34;98533.33;1747423;80;22179;-52
2022/04/08 10:52:09;;;;;;;13.78;4.80;;;;;;;16.39;43.45;98554.99;1743364;81;21107;-53
2022/04/08 10:55:11;;;;;;;11.40;4.20;;;;;;;16.40;43.24;98565.90;1749480;80;21063;-52
2022/04/08 10:58:00;;;;;;;10.08;4.15;;;;;;;16.35;43.93;98557.73;1756867;80;21035;-53
2022/04/08 11:00:52;;;;;;;7.90;5.08;;;;;;;16.35;43.94;98559.87;1764182;80;21106;-53
2022/04/08 11:03:41;;;;;;;9.85;4.35;;;;;;;16.34;43.91;98560.91;1752064;80;21010;-55
2022/04/08 11:06:25;;;;;;;13.13;4.33;;;;;;;16.21;44.15;98566.22;1762727;80;21125;-53
2022/04/08 11:09:12;;;;;;;9.38;4.30;;;;;;;16.09;44.50;98562.03;1768556;80;21043;-52
2022/04/08 11:11:57;;;;;;;11.97;4.05;;;;;;;16.01;44.68;98563.55;1767018;80;21062;-53
2022/04/08 11:14:41;;;;;;;11.75;4.58;;;;;;;15.93;44.92;98559.23;1746135;80;21517;-53
2022/04/08 11:17:35;;;;;;;9.83;4.87;;;;;;;15.89;45.22;98566.50;1759639;80;21007;-53
2022/04/08 11:20:21;;;;;;;9.40;4.62;;;;;;;15.84;45.41;98564.45;1686092;82;21087;-54
2022/04/08 11:23:08;;;;;;;8.80;4.83;;;;;;;15.80;45.80;98568.50;1760412;80;21106;-52
2022/04/08 11:25:53;;;;;;;10.32;4.87;;;;;;;15.69;46.85;98566.42;1772248;80;21047;-53
2022/04/08 11:28:38;;;;;;;10.58;4.37;;;;;;;15.58;47.79;98571.78;1759614;80;21086;-52
2022/04/08 11:31:24;;;;;;;8.83;4.20;;;;;;;15.50;47.53;98581.23;1756410;80;21062;-52
2022/04/08 11:34:09;;;;;;;15.25;5.40;;;;;;;15.39;47.58;98579.98;1746029;80;21512;-53
2022/04/08 11:36:55;;;;;;;12.55;5.30;;;;;;;15.31;48.11;98602.16;1755090;80;21712;-53
2022/04/08 11:39:41;;;;;;;8.68;4.22;;;;;;;15.22;48.13;98602.03;1749929;80;21552;-52
2022/04/08 11:42:26;;;;;;;10.35;5.37;;;;;;;15.14;49.15;98629.48;1680610;79;21126;-52
2022/04/08 11:45:11;;;;;;;6.45;3.22;;;;;;;14.99;50.73;98677.28;1664832;84;21067;-53
2022/04/08 11:47:56;;;;;;;6.17;3.08;;;;;;;14.61;56.37;98666.22;1670102;84;21036;-54
2022/04/08 11:50:41;;;;;;;8.10;2.45;;;;;;;14.16;57.85;98670.86;1663582;85;21121;-53
2022/04/08 11:53:26;;;;;;;4.75;1.90;;;;;;;13.81;58.79;98665.38;1671217;85;22240;-53
2022/04/08 11:56:11;;;;;;;6.00;2.12;;;;;;;13.44;59.92;98662.69;1665325;83;21590;-53
2022/04/08 11:59:00;;;;;;;6.53;1.62;;;;;;;13.24;60.83;98686.16;1668130;83;21051;-54
2022/04/08 12:01:45;;;;;;;5.78;2.20;;;;;;;13.06;61.41;98669.85;1664666;85;21174;-54
2022/04/08 12:04:30;;;;;;;7.65;2.12;;;;;;;12.89;61.99;98663.91;1670614;84;21142;-54
2022/04/08 12:07:28;;;;;;;5.45;2.35;;;;;;;12.81;62.58;98663.00;1665733;83;21134;-54
2022/04/08 12:10:13;;;;;;;4.50;1.90;;;;;;;12.77;62.81;98670.94;1668677;84;21126;-52
2022/04/08 12:12:58;;;;;;;4.25;1.90;;;;;;;12.78;63.04;98671.27;1665067;85;21560;-52
2022/04/08 12:15:44;;;;;;;4.70;1.87;;;;;;;12.78;63.19;98670.46;1666795;85;21056;-52
2022/04/08 12:18:32;;;;;;;9.70;2.17;;;;;;;12.84;63.45;98653.89;1672930;85;21055;-54
2022/04/08 12:21:26;;;;;;;6.85;1.90;;;;;;;12.96;63.42;98659.06;1675499;83;22348;-52
2022/04/08 12:24:11;;;;;;;5.08;2.00;;;;;;;13.07;63.37;98664.90;1671065;83;21639;-52
2022/04/08 12:26:56;;;;;;;5.03;2.20;;;;;;;13.07;63.04;98671.50;1673499;85;21122;-54
2022/04/08 12:29:41;;;;;;;6.75;2.33;;;;;;;13.03;62.48;98677.65;1667042;84;21545;-54
2022/04/08 12:32:39;;;;;;;6.08;1.82;;;;;;;13.06;62.80;98678.58;1667255;85;21139;-52
2022/04/08 12:35:24;;;;;;;6.58;2.08;;;;;;;12.99;62.74;98692.19;1669325;85;22366;-53
2022/04/08 12:38:11;;;;;;;3.50;1.00;;;;;;;12.94;63.25;98720.44;1671350;83;21049;-53
2022/04/08 12:40:42;;;;;;;2.83;1.20;;;;;;;12.90;61.37;98734.20;1670975;83;21007;-54
2022/04/08 12:43:09;;;;;;;3.40;0.80;;;;;;;12.80;59.89;98742.36;1688213;83;21607;-54
2022/04/08 12:45:36;;;;;;;2.15;0.60;;;;;;;12.62;56.06;98776.95;1688999;83;21697;-53
2022/04/08 12:48:05;;;;;;;1.32;0.50;;;;;;;12.38;54.63;98759.48;1684744;83;21049;-54
2022/04/08 12:50:32;;;;;;;2.25;0.50;;;;;;;12.14;54.37;98754.66;1686192;83;21267;-54
2022/04/08 12:53:00;;;;;;;1.92;0.55;;;;;;;11.96;54.94;98752.78;1663933;84;21500;-54
2022/04/08 12:55:28;;;;;;;2.05;0.55;;;;;;;11.77;56.22;98747.36;1692262;83;21081;-54
2022/04/08 12:57:55;;;;;;;2.25;0.47;;;;;;;11.67;56.60;98739.69;1682051;83;21666;-54
2022/04/08 13:00:23;;;;;;;1.85;0.53;;;;;;;11.57;56.19;98706.95;1684667;83;21575;-54
2022/04/08 13:02:52;;;;;;;2.25;0.35;;;;;;;11.56;56.32;98711.06;1687088;84;21165;-54
2022/04/08 13:05:18;;;;;;;2.45;0.50;;;;;;;11.47;56.92;98751.10;1685299;83;21815;-54
2022/04/08 13:07:45;;;;;;;2.02;0.65;;;;;;;11.30;57.28;98784.55;1668014;84;21178;-54
2022/04/08 13:10:12;;;;;;;2.62;0.50;;;;;;;11.18;57.89;98791.97;1677210;83;21027;-52